sensor_id;sensor_type;location;lat;lon;timestamp;P1;durP1;ratioP1;P2;durP2;ratioP2
4595;SDS011;2310;49.978;8.742;2022-08-19T00:01:19;21.33;;;19.40;;
4595;SDS011;2310;49.978;8.742;2022-08-19T00:05:22;21.70;;;19.70;;
4595;SDS011;2310;49.978;8.742;2022-08-19T00:09:24;22.17;;;20.10;;
4595;SDS011;2310;49.978;8.742;2022-08-19T00:13:25;18.83;;;17.23;;
4595;SDS011;2310;49.978;8.742;2022-08-19T00:17:28;19.93;;;18.13;;
4595;SDS011;2310;49.978;8.742;2022-08-19T00:21:29;19.63;;;17.83;;
4595;SDS011;2310;49.978;8.742;2022-08-19T00:25:31;19.67;;;17.87;;
4595;SDS011;2310;49.978;8.742;2022-08-19T00:29:32;18.97;;;17.27;;
4595;SDS011;2310;49.978;8.742;2022-08-19T00:33:33;20.50;;;18.80;;
4595;SDS011;2310;49.978;8.742;2022-08-19T00:37:35;19.70;;;18.00;;
4595;SDS011;2310;49.978;8.742;2022-08-19T00:41:36;18.40;;;16.80;;
4595;SDS011;2310;49.978;8.742;2022-08-19T00:45:38;19.40;;;17.67;;
4595;SDS011;2310;49.978;8.742;2022-08-19T00:49:43;19.60;;;17.90;;
4595;SDS011;2310;49.978;8.742;2022-08-19T00:53:48;20.40;;;18.50;;
4595;SDS011;2310;49.978;8.742;2022-08-19T00:57:55;19.40;;;17.70;;
4595;SDS011;2310;49.978;8.742;2022-08-19T01:01:58;19.70;;;17.90;;
4595;SDS011;2310;49.978;8.742;2022-08-19T01:05:59;21.07;;;19.07;;
4595;SDS011;2310;49.978;8.742;2022-08-19T01:10:00;20.37;;;18.37;;
4595;SDS011;2310;49.978;8.742;2022-08-19T01:14:03;21.73;;;19.67;;
4595;SDS011;2310;49.978;8.742;2022-08-19T01:18:06;20.93;;;19.00;;
4595;SDS011;2310;49.978;8.742;2022-08-19T01:26:38;19.50;;;17.80;;
4595;SDS011;2310;49.978;8.742;2022-08-19T01:30:44;19.30;;;17.53;;
4595;SDS011;2310;49.978;8.742;2022-08-19T01:34:47;20.43;;;18.70;;
4595;SDS011;2310;49.978;8.742;2022-08-19T01:38:49;19.00;;;17.30;;
4595;SDS011;2310;49.978;8.742;2022-08-19T01:42:50;18.63;;;16.83;;
4595;SDS011;2310;49.978;8.742;2022-08-19T01:46:53;19.27;;;17.67;;
4595;SDS011;2310;49.978;8.742;2022-08-19T01:50:54;16.87;;;15.37;;
4595;SDS011;2310;49.978;8.742;2022-08-19T01:54:56;18.73;;;16.93;;
4595;SDS011;2310;49.978;8.742;2022-08-19T01:58:59;18.20;;;16.50;;
4595;SDS011;2310;49.978;8.742;2022-08-19T02:03:05;18.97;;;17.17;;
4595;SDS011;2310;49.978;8.742;2022-08-19T02:07:07;21.37;;;19.47;;
4595;SDS011;2310;49.978;8.742;2022-08-19T02:11:08;17.10;;;15.50;;
4595;SDS011;2310;49.978;8.742;2022-08-19T02:15:12;16.93;;;15.53;;
4595;SDS011;2310;49.978;8.742;2022-08-19T02:19:13;17.90;;;16.40;;
4595;SDS011;2310;49.978;8.742;2022-08-19T02:23:15;18.10;;;16.43;;
4595;SDS011;2310;49.978;8.742;2022-08-19T02:27:17;17.63;;;15.93;;
4595;SDS011;2310;49.978;8.742;2022-08-19T02:31:20;17.57;;;15.87;;
4595;SDS011;2310;49.978;8.742;2022-08-19T02:35:24;18.00;;;16.40;;
4595;SDS011;2310;49.978;8.742;2022-08-19T02:39:26;16.53;;;14.93;;
4595;SDS011;2310;49.978;8.742;2022-08-19T02:43:28;15.30;;;14.00;;
4595;SDS011;2310;49.978;8.742;2022-08-19T02:47:32;16.60;;;15.10;;
4595;SDS011;2310;49.978;8.742;2022-08-19T02:51:35;18.83;;;17.13;;
4595;SDS011;2310;49.978;8.742;2022-08-19T02:55:43;15.53;;;14.03;;
4595;SDS011;2310;49.978;8.742;2022-08-19T02:59:47;18.23;;;16.43;;
4595;SDS011;2310;49.978;8.742;2022-08-19T03:03:48;15.50;;;14.10;;
4595;SDS011;2310;49.978;8.742;2022-08-19T03:07:49;15.80;;;14.40;;
4595;SDS011;2310;49.978;8.742;2022-08-19T03:11:51;16.33;;;14.73;;
4595;SDS011;2310;49.978;8.742;2022-08-19T03:15:53;15.70;;;14.17;;
4595;SDS011;2310;49.978;8.742;2022-08-19T03:19:54;17.60;;;16.00;;
4595;SDS011;2310;49.978;8.742;2022-08-19T03:23:57;15.57;;;14.07;;
4595;SDS011;2310;49.978;8.742;2022-08-19T03:27:59;16.50;;;14.90;;
4595;SDS011;2310;49.978;8.742;2022-08-19T03:32:02;15.90;;;14.30;;
4595;SDS011;2310;49.978;8.742;2022-08-19T03:36:07;15.60;;;14.00;;
4595;SDS011;2310;49.978;8.742;2022-08-19T03:40:10;16.77;;;15.00;;
4595;SDS011;2310;49.978;8.742;2022-08-19T03:44:13;15.00;;;13.63;;
4595;SDS011;2310;49.978;8.742;2022-08-19T03:48:18;16.00;;;14.57;;
4595;SDS011;2310;49.978;8.742;2022-08-19T03:52:19;16.67;;;14.90;;
4595;SDS011;2310;49.978;8.742;2022-08-19T03:56:20;14.27;;;12.97;;
4595;SDS011;2310;49.978;8.742;2022-08-19T04:00:22;14.70;;;13.37;;
4595;SDS011;2310;49.978;8.742;2022-08-19T04:04:24;15.23;;;13.73;;
4595;SDS011;2310;49.978;8.742;2022-08-19T04:08:27;15.20;;;13.80;;
4595;SDS011;2310;49.978;8.742;2022-08-19T04:12:28;14.60;;;13.30;;
4595;SDS011;2310;49.978;8.742;2022-08-19T04:16:30;16.93;;;15.47;;
4595;SDS011;2310;49.978;8.742;2022-08-19T04:20:38;14.33;;;12.93;;
4595;SDS011;2310;49.978;8.742;2022-08-19T04:24:43;13.83;;;12.57;;
4595;SDS011;2310;49.978;8.742;2022-08-19T04:28:44;15.87;;;14.47;;
4595;SDS011;2310;49.978;8.742;2022-08-19T04:32:46;13.23;;;12.03;;
4595;SDS011;2310;49.978;8.742;2022-08-19T04:36:48;14.97;;;13.70;;
4595;SDS011;2310;49.978;8.742;2022-08-19T04:40:53;15.17;;;13.80;;
4595;SDS011;2310;49.978;8.742;2022-08-19T04:45:13;15.10;;;13.67;;
4595;SDS011;2310;49.978;8.742;2022-08-19T04:49:16;15.30;;;14.10;;
4595;SDS011;2310;49.978;8.742;2022-08-19T04:53:19;12.20;;;11.03;;
4595;SDS011;2310;49.978;8.742;2022-08-19T04:57:20;15.93;;;14.37;;
4595;SDS011;2310;49.978;8.742;2022-08-19T05:01:23;14.80;;;13.50;;
4595;SDS011;2310;49.978;8.742;2022-08-19T05:05:26;14.70;;;13.37;;
4595;SDS011;2310;49.978;8.742;2022-08-19T05:09:28;14.63;;;13.13;;
4595;SDS011;2310;49.978;8.742;2022-08-19T05:13:32;15.07;;;13.67;;
4595;SDS011;2310;49.978;8.742;2022-08-19T05:17:33;11.63;;;10.60;;
4595;SDS011;2310;49.978;8.742;2022-08-19T05:21:36;14.57;;;13.17;;
4595;SDS011;2310;49.978;8.742;2022-08-19T05:25:58;13.83;;;12.53;;
4595;SDS011;2310;49.978;8.742;2022-08-19T05:29:59;15.07;;;13.77;;
4595;SDS011;2310;49.978;8.742;2022-08-19T05:34:00;14.10;;;12.73;;
4595;SDS011;2310;49.978;8.742;2022-08-19T05:38:02;14.37;;;12.87;;
4595;SDS011;2310;49.978;8.742;2022-08-19T05:42:05;14.47;;;13.13;;
4595;SDS011;2310;49.978;8.742;2022-08-19T05:46:08;13.60;;;12.50;;
4595;SDS011;2310;49.978;8.742;2022-08-19T05:50:13;16.03;;;13.20;;
4595;SDS011;2310;49.978;8.742;2022-08-19T05:54:14;12.77;;;11.57;;
4595;SDS011;2310;49.978;8.742;2022-08-19T05:58:15;17.80;;;12.27;;
4595;SDS011;2310;49.978;8.742;2022-08-19T06:02:18;13.83;;;12.57;;
4595;SDS011;2310;49.978;8.742;2022-08-19T06:06:19;14.17;;;12.63;;
4595;SDS011;2310;49.978;8.742;2022-08-19T06:10:20;12.60;;;11.30;;
4595;SDS011;2310;49.978;8.742;2022-08-19T06:14:23;14.40;;;12.87;;
4595;SDS011;2310;49.978;8.742;2022-08-19T06:18:28;12.67;;;11.47;;
4595;SDS011;2310;49.978;8.742;2022-08-19T06:22:30;17.97;;;12.30;;
4595;SDS011;2310;49.978;8.742;2022-08-19T06:26:31;12.23;;;11.03;;
4595;SDS011;2310;49.978;8.742;2022-08-19T06:30:35;13.63;;;12.40;;
4595;SDS011;2310;49.978;8.742;2022-08-19T06:34:37;14.20;;;13.00;;
4595;SDS011;2310;49.978;8.742;2022-08-19T06:38:39;14.53;;;13.03;;
4595;SDS011;2310;49.978;8.742;2022-08-19T06:42:40;12.10;;;10.90;;
4595;SDS011;2310;49.978;8.742;2022-08-19T06:46:43;12.00;;;10.80;;
4595;SDS011;2310;49.978;8.742;2022-08-19T06:50:46;12.43;;;11.20;;
4595;SDS011;2310;49.978;8.742;2022-08-19T06:54:50;12.03;;;10.93;;
4595;SDS011;2310;49.978;8.742;2022-08-19T06:58:53;12.63;;;11.37;;
4595;SDS011;2310;49.978;8.742;2022-08-19T07:02:54;11.67;;;9.80;;
4595;SDS011;2310;49.978;8.742;2022-08-19T07:06:58;11.33;;;10.23;;
4595;SDS011;2310;49.978;8.742;2022-08-19T07:11:07;10.87;;;9.67;;
4595;SDS011;2310;49.978;8.742;2022-08-19T07:15:11;10.83;;;9.73;;
4595;SDS011;2310;49.978;8.742;2022-08-19T07:19:13;9.50;;;8.50;;
4595;SDS011;2310;49.978;8.742;2022-08-19T07:23:16;11.30;;;10.00;;
4595;SDS011;2310;49.978;8.742;2022-08-19T07:27:18;9.93;;;8.97;;
4595;SDS011;2310;49.978;8.742;2022-08-19T07:31:22;10.17;;;9.30;;
4595;SDS011;2310;49.978;8.742;2022-08-19T07:35:26;9.93;;;8.80;;
4595;SDS011;2310;49.978;8.742;2022-08-19T07:39:30;9.13;;;8.27;;
4595;SDS011;2310;49.978;8.742;2022-08-19T07:43:33;8.80;;;7.97;;
4595;SDS011;2310;49.978;8.742;2022-08-19T07:47:35;11.33;;;9.70;;
4595;SDS011;2310;49.978;8.742;2022-08-19T07:51:38;10.03;;;8.37;;
4595;SDS011;2310;49.978;8.742;2022-08-19T07:55:40;8.97;;;8.07;;
4595;SDS011;2310;49.978;8.742;2022-08-19T07:59:43;10.37;;;9.47;;
4595;SDS011;2310;49.978;8.742;2022-08-19T08:03:44;8.60;;;7.70;;
4595;SDS011;2310;49.978;8.742;2022-08-19T08:08:06;9.03;;;8.20;;
4595;SDS011;2310;49.978;8.742;2022-08-19T08:12:30;9.50;;;8.50;;
4595;SDS011;2310;49.978;8.742;2022-08-19T08:16:34;9.90;;;6.60;;
4595;SDS011;2310;49.978;8.742;2022-08-19T08:20:39;7.13;;;6.50;;
4595;SDS011;2310;49.978;8.742;2022-08-19T08:24:40;6.57;;;5.97;;
4595;SDS011;2310;49.978;8.742;2022-08-19T08:28:41;6.27;;;5.77;;
4595;SDS011;2310;49.978;8.742;2022-08-19T08:32:45;6.70;;;6.10;;
4595;SDS011;2310;49.978;8.742;2022-08-19T08:36:47;5.20;;;4.70;;
4595;SDS011;2310;49.978;8.742;2022-08-19T08:40:49;6.07;;;5.47;;
4595;SDS011;2310;49.978;8.742;2022-08-19T08:45:02;6.77;;;6.17;;
4595;SDS011;2310;49.978;8.742;2022-08-19T08:53:29;9.63;;;6.80;;
4595;SDS011;2310;49.978;8.742;2022-08-19T09:01:55;7.13;;;6.40;;
4595;SDS011;2310;49.978;8.742;2022-08-19T09:06:01;8.57;;;7.87;;
4595;SDS011;2310;49.978;8.742;2022-08-19T09:10:14;10.00;;;7.37;;
4595;SDS011;2310;49.978;8.742;2022-08-19T09:14:26;7.30;;;6.40;;
4595;SDS011;2310;49.978;8.742;2022-08-19T09:22:48;7.63;;;5.50;;
4595;SDS011;2310;49.978;8.742;2022-08-19T09:26:50;6.70;;;6.10;;
4595;SDS011;2310;49.978;8.742;2022-08-19T09:30:53;6.07;;;5.23;;
4595;SDS011;2310;49.978;8.742;2022-08-19T09:34:54;8.03;;;6.50;;
4595;SDS011;2310;49.978;8.742;2022-08-19T09:38:56;6.77;;;6.17;;
4595;SDS011;2310;49.978;8.742;2022-08-19T09:42:59;5.90;;;5.30;;
4595;SDS011;2310;49.978;8.742;2022-08-19T09:47:02;5.20;;;4.67;;
4595;SDS011;2310;49.978;8.742;2022-08-19T09:51:05;6.63;;;6.00;;
4595;SDS011;2310;49.978;8.742;2022-08-19T09:55:11;6.80;;;6.30;;
4595;SDS011;2310;49.978;8.742;2022-08-19T09:59:14;6.50;;;6.00;;
4595;SDS011;2310;49.978;8.742;2022-08-19T10:03:16;6.33;;;5.70;;
4595;SDS011;2310;49.978;8.742;2022-08-19T10:07:18;6.83;;;6.23;;
4595;SDS011;2310;49.978;8.742;2022-08-19T10:11:19;6.50;;;5.90;;
4595;SDS011;2310;49.978;8.742;2022-08-19T10:15:23;7.33;;;5.73;;
4595;SDS011;2310;49.978;8.742;2022-08-19T10:19:26;6.43;;;5.83;;
4595;SDS011;2310;49.978;8.742;2022-08-19T10:23:30;6.27;;;5.67;;
4595;SDS011;2310;49.978;8.742;2022-08-19T10:27:33;6.07;;;5.47;;
4595;SDS011;2310;49.978;8.742;2022-08-19T10:31:36;6.40;;;5.80;;
4595;SDS011;2310;49.978;8.742;2022-08-19T10:35:39;7.10;;;6.40;;
4595;SDS011;2310;49.978;8.742;2022-08-19T10:39:43;7.03;;;6.33;;
4595;SDS011;2310;49.978;8.742;2022-08-19T10:43:53;7.50;;;6.00;;
4595;SDS011;2310;49.978;8.742;2022-08-19T10:47:59;7.20;;;6.50;;
4595;SDS011;2310;49.978;8.742;2022-08-19T10:52:00;7.50;;;5.80;;
4595;SDS011;2310;49.978;8.742;2022-08-19T10:56:21;8.40;;;7.60;;
4595;SDS011;2310;49.978;8.742;2022-08-19T11:00:40;8.47;;;7.80;;
4595;SDS011;2310;49.978;8.742;2022-08-19T11:04:43;7.57;;;6.97;;
4595;SDS011;2310;49.978;8.742;2022-08-19T11:08:47;8.47;;;7.67;;
4595;SDS011;2310;49.978;8.742;2022-08-19T11:12:48;7.40;;;6.80;;
4595;SDS011;2310;49.978;8.742;2022-08-19T11:16:52;8.70;;;7.17;;
4595;SDS011;2310;49.978;8.742;2022-08-19T11:20:55;7.60;;;7.00;;
4595;SDS011;2310;49.978;8.742;2022-08-19T11:25:00;18.33;;;7.50;;
4595;SDS011;2310;49.978;8.742;2022-08-19T11:33:12;8.50;;;7.80;;
4595;SDS011;2310;49.978;8.742;2022-08-19T11:37:13;9.13;;;8.33;;
4595;SDS011;2310;49.978;8.742;2022-08-19T11:41:15;11.23;;;9.27;;
4595;SDS011;2310;49.978;8.742;2022-08-19T11:45:18;9.80;;;9.10;;
4595;SDS011;2310;49.978;8.742;2022-08-19T11:49:19;9.10;;;8.40;;
4595;SDS011;2310;49.978;8.742;2022-08-19T11:53:23;9.97;;;9.17;;
4595;SDS011;2310;49.978;8.742;2022-08-19T11:57:25;11.30;;;9.63;;
4595;SDS011;2310;49.978;8.742;2022-08-19T12:01:26;10.40;;;9.60;;
4595;SDS011;2310;49.978;8.742;2022-08-19T12:05:27;10.27;;;9.40;;
4595;SDS011;2310;49.978;8.742;2022-08-19T12:09:29;9.93;;;9.00;;
4595;SDS011;2310;49.978;8.742;2022-08-19T12:13:31;11.93;;;11.07;;
4595;SDS011;2310;49.978;8.742;2022-08-19T12:17:32;12.00;;;11.00;;
4595;SDS011;2310;49.978;8.742;2022-08-19T12:21:35;11.57;;;10.70;;
4595;SDS011;2310;49.978;8.742;2022-08-19T12:25:37;12.90;;;11.97;;
4595;SDS011;2310;49.978;8.742;2022-08-19T12:29:40;13.33;;;12.23;;
4595;SDS011;2310;49.978;8.742;2022-08-19T12:33:42;12.87;;;11.87;;
4595;SDS011;2310;49.978;8.742;2022-08-19T12:37:43;13.30;;;12.20;;
4595;SDS011;2310;49.978;8.742;2022-08-19T12:41:48;13.13;;;11.93;;
4595;SDS011;2310;49.978;8.742;2022-08-19T12:45:51;13.73;;;12.63;;
4595;SDS011;2310;49.978;8.742;2022-08-19T12:49:52;13.53;;;12.43;;
4595;SDS011;2310;49.978;8.742;2022-08-19T12:53:56;12.70;;;11.60;;
4595;SDS011;2310;49.978;8.742;2022-08-19T12:57:57;13.07;;;11.93;;
4595;SDS011;2310;49.978;8.742;2022-08-19T13:01:59;12.40;;;11.30;;
4595;SDS011;2310;49.978;8.742;2022-08-19T13:06:00;13.53;;;12.53;;
4595;SDS011;2310;49.978;8.742;2022-08-19T13:10:02;12.33;;;11.40;;
4595;SDS011;2310;49.978;8.742;2022-08-19T13:14:04;13.20;;;12.00;;
4595;SDS011;2310;49.978;8.742;2022-08-19T13:18:06;11.67;;;10.57;;
4595;SDS011;2310;49.978;8.742;2022-08-19T13:22:09;12.10;;;11.07;;
4595;SDS011;2310;49.978;8.742;2022-08-19T13:26:12;10.80;;;9.90;;
4595;SDS011;2310;49.978;8.742;2022-08-19T13:30:15;11.00;;;10.20;;
4595;SDS011;2310;49.978;8.742;2022-08-19T13:34:37;11.50;;;10.60;;
4595;SDS011;2310;49.978;8.742;2022-08-19T13:38:38;11.63;;;10.73;;
4595;SDS011;2310;49.978;8.742;2022-08-19T13:42:39;11.73;;;10.63;;
4595;SDS011;2310;49.978;8.742;2022-08-19T13:46:41;11.00;;;10.10;;
4595;SDS011;2310;49.978;8.742;2022-08-19T13:50:45;10.53;;;9.73;;
4595;SDS011;2310;49.978;8.742;2022-08-19T13:54:48;10.00;;;9.10;;
4595;SDS011;2310;49.978;8.742;2022-08-19T13:58:50;8.73;;;8.03;;
4595;SDS011;2310;49.978;8.742;2022-08-19T14:02:52;10.03;;;9.13;;
4595;SDS011;2310;49.978;8.742;2022-08-19T14:06:54;10.63;;;9.73;;
4595;SDS011;2310;49.978;8.742;2022-08-19T14:10:55;10.10;;;9.10;;
4595;SDS011;2310;49.978;8.742;2022-08-19T14:14:57;9.40;;;8.60;;
4595;SDS011;2310;49.978;8.742;2022-08-19T14:18:59;9.63;;;8.83;;
4595;SDS011;2310;49.978;8.742;2022-08-19T14:23:02;8.17;;;7.37;;
4595;SDS011;2310;49.978;8.742;2022-08-19T14:27:04;10.00;;;8.60;;
4595;SDS011;2310;49.978;8.742;2022-08-19T14:31:05;8.47;;;7.87;;
4595;SDS011;2310;49.978;8.742;2022-08-19T14:35:07;8.37;;;7.63;;
4595;SDS011;2310;49.978;8.742;2022-08-19T14:39:09;8.57;;;7.70;;
4595;SDS011;2310;49.978;8.742;2022-08-19T14:43:11;7.87;;;7.17;;
4595;SDS011;2310;49.978;8.742;2022-08-19T14:47:12;6.67;;;6.17;;
4595;SDS011;2310;49.978;8.742;2022-08-19T14:51:15;6.73;;;5.67;;
4595;SDS011;2310;49.978;8.742;2022-08-19T14:55:17;5.97;;;5.37;;
4595;SDS011;2310;49.978;8.742;2022-08-19T14:59:19;6.20;;;5.70;;
4595;SDS011;2310;49.978;8.742;2022-08-19T15:03:20;6.53;;;5.80;;
4595;SDS011;2310;49.978;8.742;2022-08-19T15:07:23;6.30;;;4.87;;
4595;SDS011;2310;49.978;8.742;2022-08-19T15:11:27;6.43;;;5.93;;
4595;SDS011;2310;49.978;8.742;2022-08-19T15:15:29;7.20;;;6.60;;
4595;SDS011;2310;49.978;8.742;2022-08-19T15:19:31;6.43;;;5.93;;
4595;SDS011;2310;49.978;8.742;2022-08-19T15:23:33;6.60;;;6.00;;
4595;SDS011;2310;49.978;8.742;2022-08-19T15:27:34;8.10;;;5.73;;
4595;SDS011;2310;49.978;8.742;2022-08-19T15:31:36;6.67;;;5.50;;
4595;SDS011;2310;49.978;8.742;2022-08-19T15:35:40;6.83;;;6.30;;
4595;SDS011;2310;49.978;8.742;2022-08-19T15:39:42;6.80;;;6.30;;
4595;SDS011;2310;49.978;8.742;2022-08-19T15:43:44;6.53;;;5.93;;
4595;SDS011;2310;49.978;8.742;2022-08-19T15:47:45;7.00;;;6.40;;
4595;SDS011;2310;49.978;8.742;2022-08-19T15:51:48;6.80;;;6.30;;
4595;SDS011;2310;49.978;8.742;2022-08-19T15:55:49;6.57;;;5.90;;
4595;SDS011;2310;49.978;8.742;2022-08-19T15:59:51;7.07;;;6.37;;
4595;SDS011;2310;49.978;8.742;2022-08-19T16:04:12;5.53;;;5.03;;
4595;SDS011;2310;49.978;8.742;2022-08-19T16:08:33;5.03;;;4.53;;
4595;SDS011;2310;49.978;8.742;2022-08-19T16:12:36;6.33;;;5.83;;
4595;SDS011;2310;49.978;8.742;2022-08-19T16:16:39;6.60;;;6.00;;
4595;SDS011;2310;49.978;8.742;2022-08-19T16:20:40;6.90;;;6.27;;
4595;SDS011;2310;49.978;8.742;2022-08-19T16:24:41;6.00;;;5.50;;
4595;SDS011;2310;49.978;8.742;2022-08-19T16:28:42;6.07;;;5.57;;
4595;SDS011;2310;49.978;8.742;2022-08-19T16:32:44;5.63;;;5.13;;
4595;SDS011;2310;49.978;8.742;2022-08-19T16:36:45;5.10;;;4.70;;
4595;SDS011;2310;49.978;8.742;2022-08-19T16:40:47;6.37;;;5.27;;
4595;SDS011;2310;49.978;8.742;2022-08-19T16:44:50;5.80;;;5.30;;
4595;SDS011;2310;49.978;8.742;2022-08-19T16:48:51;5.70;;;5.20;;
4595;SDS011;2310;49.978;8.742;2022-08-19T16:52:52;5.23;;;4.73;;
4595;SDS011;2310;49.978;8.742;2022-08-19T16:56:53;5.90;;;5.30;;
4595;SDS011;2310;49.978;8.742;2022-08-19T17:00:56;6.40;;;5.73;;
4595;SDS011;2310;49.978;8.742;2022-08-19T17:05:00;6.07;;;5.47;;
4595;SDS011;2310;49.978;8.742;2022-08-19T17:09:03;5.93;;;5.33;;
4595;SDS011;2310;49.978;8.742;2022-08-19T17:13:05;5.90;;;5.40;;
4595;SDS011;2310;49.978;8.742;2022-08-19T17:17:07;6.33;;;5.83;;
4595;SDS011;2310;49.978;8.742;2022-08-19T17:21:10;7.33;;;6.63;;
4595;SDS011;2310;49.978;8.742;2022-08-19T17:25:12;7.47;;;6.77;;
4595;SDS011;2310;49.978;8.742;2022-08-19T17:29:14;6.50;;;5.90;;
4595;SDS011;2310;49.978;8.742;2022-08-19T17:33:16;6.97;;;6.27;;
4595;SDS011;2310;49.978;8.742;2022-08-19T17:37:17;6.97;;;6.37;;
4595;SDS011;2310;49.978;8.742;2022-08-19T17:41:18;7.07;;;6.57;;
4595;SDS011;2310;49.978;8.742;2022-08-19T17:45:19;7.40;;;6.80;;
4595;SDS011;2310;49.978;8.742;2022-08-19T17:49:22;6.20;;;5.60;;
4595;SDS011;2310;49.978;8.742;2022-08-19T17:53:23;6.80;;;6.17;;
4595;SDS011;2310;49.978;8.742;2022-08-19T17:57:25;7.80;;;7.10;;
4595;SDS011;2310;49.978;8.742;2022-08-19T18:01:27;6.80;;;6.10;;
4595;SDS011;2310;49.978;8.742;2022-08-19T18:05:32;6.73;;;5.97;;
4595;SDS011;2310;49.978;8.742;2022-08-19T18:09:36;6.50;;;6.00;;
4595;SDS011;2310;49.978;8.742;2022-08-19T18:13:41;6.93;;;6.33;;
4595;SDS011;2310;49.978;8.742;2022-08-19T18:17:43;7.53;;;6.63;;
4595;SDS011;2310;49.978;8.742;2022-08-19T18:21:45;7.03;;;6.43;;
4595;SDS011;2310;49.978;8.742;2022-08-19T18:25:46;7.90;;;7.20;;
4595;SDS011;2310;49.978;8.742;2022-08-19T18:29:49;7.23;;;6.63;;
4595;SDS011;2310;49.978;8.742;2022-08-19T18:33:50;7.90;;;7.20;;
4595;SDS011;2310;49.978;8.742;2022-08-19T18:37:55;7.97;;;7.27;;
4595;SDS011;2310;49.978;8.742;2022-08-19T18:41:58;7.57;;;6.97;;
4595;SDS011;2310;49.978;8.742;2022-08-19T18:46:18;9.10;;;8.40;;
4595;SDS011;2310;49.978;8.742;2022-08-19T18:50:37;7.37;;;6.77;;
4595;SDS011;2310;49.978;8.742;2022-08-19T18:54:42;8.23;;;7.53;;
4595;SDS011;2310;49.978;8.742;2022-08-19T18:58:46;9.63;;;8.73;;
4595;SDS011;2310;49.978;8.742;2022-08-19T19:02:47;8.80;;;7.80;;
4595;SDS011;2310;49.978;8.742;2022-08-19T19:06:50;8.60;;;8.00;;
4595;SDS011;2310;49.978;8.742;2022-08-19T19:10:51;9.43;;;7.90;;
4595;SDS011;2310;49.978;8.742;2022-08-19T19:14:52;8.53;;;7.83;;
4595;SDS011;2310;49.978;8.742;2022-08-19T19:18:54;8.40;;;7.70;;
4595;SDS011;2310;49.978;8.742;2022-08-19T19:22:56;10.10;;;8.47;;
4595;SDS011;2310;49.978;8.742;2022-08-19T19:26:59;9.87;;;9.07;;
4595;SDS011;2310;49.978;8.742;2022-08-19T19:31:04;8.97;;;8.20;;
4595;SDS011;2310;49.978;8.742;2022-08-19T19:35:06;8.50;;;7.77;;
4595;SDS011;2310;49.978;8.742;2022-08-19T19:39:09;10.10;;;9.10;;
4595;SDS011;2310;49.978;8.742;2022-08-19T19:43:11;9.77;;;8.90;;
4595;SDS011;2310;49.978;8.742;2022-08-19T19:47:12;9.20;;;8.30;;
4595;SDS011;2310;49.978;8.742;2022-08-19T19:51:15;8.63;;;7.93;;
4595;SDS011;2310;49.978;8.742;2022-08-19T19:55:17;9.27;;;8.40;;
4595;SDS011;2310;49.978;8.742;2022-08-19T19:59:19;10.23;;;9.33;;
4595;SDS011;2310;49.978;8.742;2022-08-19T20:03:20;9.40;;;8.57;;
4595;SDS011;2310;49.978;8.742;2022-08-19T20:07:22;9.60;;;8.67;;
4595;SDS011;2310;49.978;8.742;2022-08-19T20:11:27;9.23;;;8.43;;
4595;SDS011;2310;49.978;8.742;2022-08-19T20:15:33;9.40;;;8.50;;
4595;SDS011;2310;49.978;8.742;2022-08-19T20:19:36;9.07;;;8.30;;
4595;SDS011;2310;49.978;8.742;2022-08-19T20:23:38;10.10;;;8.90;;
4595;SDS011;2310;49.978;8.742;2022-08-19T20:27:39;10.43;;;8.67;;
4595;SDS011;2310;49.978;8.742;2022-08-19T20:31:43;9.70;;;8.80;;
4595;SDS011;2310;49.978;8.742;2022-08-19T20:35:47;8.83;;;8.13;;
4595;SDS011;2310;49.978;8.742;2022-08-19T20:39:48;8.90;;;8.10;;
4595;SDS011;2310;49.978;8.742;2022-08-19T20:43:50;10.00;;;8.97;;
4595;SDS011;2310;49.978;8.742;2022-08-19T20:47:52;9.87;;;8.87;;
4595;SDS011;2310;49.978;8.742;2022-08-19T20:51:54;10.17;;;9.20;;
4595;SDS011;2310;49.978;8.742;2022-08-19T20:55:55;9.00;;;8.20;;
4595;SDS011;2310;49.978;8.742;2022-08-19T21:00:00;10.10;;;9.20;;
4595;SDS011;2310;49.978;8.742;2022-08-19T21:04:04;9.70;;;8.90;;
4595;SDS011;2310;49.978;8.742;2022-08-19T21:08:05;10.30;;;9.40;;
4595;SDS011;2310;49.978;8.742;2022-08-19T21:12:10;9.20;;;8.37;;
4595;SDS011;2310;49.978;8.742;2022-08-19T21:16:12;10.47;;;9.50;;
4595;SDS011;2310;49.978;8.742;2022-08-19T21:20:14;9.80;;;8.90;;
4595;SDS011;2310;49.978;8.742;2022-08-19T21:24:15;9.87;;;8.97;;
4595;SDS011;2310;49.978;8.742;2022-08-19T21:28:17;9.37;;;8.47;;
4595;SDS011;2310;49.978;8.742;2022-08-19T21:32:21;9.93;;;9.03;;
4595;SDS011;2310;49.978;8.742;2022-08-19T21:36:23;9.70;;;8.70;;
4595;SDS011;2310;49.978;8.742;2022-08-19T21:40:25;9.67;;;8.70;;
4595;SDS011;2310;49.978;8.742;2022-08-19T21:44:26;9.80;;;8.57;;
4595;SDS011;2310;49.978;8.742;2022-08-19T21:48:27;9.57;;;8.67;;
4595;SDS011;2310;49.978;8.742;2022-08-19T21:52:29;10.30;;;7.77;;
4595;SDS011;2310;49.978;8.742;2022-08-19T21:56:30;8.47;;;7.57;;
4595;SDS011;2310;49.978;8.742;2022-08-19T22:00:32;9.23;;;8.00;;
4595;SDS011;2310;49.978;8.742;2022-08-19T22:04:34;10.73;;;7.70;;
4595;SDS011;2310;49.978;8.742;2022-08-19T22:08:36;9.73;;;8.17;;
4595;SDS011;2310;49.978;8.742;2022-08-19T22:12:38;8.13;;;7.43;;
4595;SDS011;2310;49.978;8.742;2022-08-19T22:16:43;9.33;;;8.03;;
4595;SDS011;2310;49.978;8.742;2022-08-19T22:20:46;9.23;;;8.27;;
4595;SDS011;2310;49.978;8.742;2022-08-19T22:24:47;7.90;;;6.83;;
4595;SDS011;2310;49.978;8.742;2022-08-19T22:28:49;6.90;;;6.30;;
4595;SDS011;2310;49.978;8.742;2022-08-19T22:32:52;7.80;;;7.00;;
4595;SDS011;2310;49.978;8.742;2022-08-19T22:36:56;8.87;;;7.97;;
4595;SDS011;2310;49.978;8.742;2022-08-19T22:40:58;8.73;;;7.83;;
4595;SDS011;2310;49.978;8.742;2022-08-19T22:45:00;9.20;;;8.30;;
4595;SDS011;2310;49.978;8.742;2022-08-19T22:49:01;7.97;;;7.17;;
4595;SDS011;2310;49.978;8.742;2022-08-19T22:53:02;9.40;;;7.67;;
4595;SDS011;2310;49.978;8.742;2022-08-19T22:57:06;8.93;;;8.00;;
4595;SDS011;2310;49.978;8.742;2022-08-19T23:01:07;8.20;;;7.40;;
4595;SDS011;2310;49.978;8.742;2022-08-19T23:05:09;8.37;;;7.57;;
4595;SDS011;2310;49.978;8.742;2022-08-19T23:09:10;8.33;;;7.53;;
4595;SDS011;2310;49.978;8.742;2022-08-19T23:13:14;10.37;;;8.17;;
4595;SDS011;2310;49.978;8.742;2022-08-19T23:17:17;8.93;;;7.50;;
4595;SDS011;2310;49.978;8.742;2022-08-19T23:21:20;7.83;;;7.07;;
4595;SDS011;2310;49.978;8.742;2022-08-19T23:25:26;8.43;;;7.13;;
4595;SDS011;2310;49.978;8.742;2022-08-19T23:33:35;7.50;;;6.80;;
4595;SDS011;2310;49.978;8.742;2022-08-19T23:37:40;8.17;;;7.37;;
4595;SDS011;2310;49.978;8.742;2022-08-19T23:41:41;7.73;;;7.00;;
4595;SDS011;2310;49.978;8.742;2022-08-19T23:45:42;7.60;;;6.73;;
4595;SDS011;2310;49.978;8.742;2022-08-19T23:49:46;7.10;;;6.40;;
4595;SDS011;2310;49.978;8.742;2022-08-19T23:53:48;7.67;;;6.87;;
4595;SDS011;2310;49.978;8.742;2022-08-19T23:57:49;6.40;;;5.80;;
